EWG12E EDDL-EDDP
Flight info
| Callsign | EWG12E |
|---|---|
| Flight time | 0h 42m |
| Altitude | 23000 |
| Route | NUDGO6T/23L NUDGO Z858 BERDI T958 KOJEC KOJEC1V |
| Aircraft | A21N/M-SDE2E3FGHIRWXY/LB1 |
Departure
| Time | 2026-05-05 11:47 |
|---|---|
| Airport | Düsseldorf Airport (EDDL) |
Arrival
| Time | 2026-05-05 12:29 |
|---|---|
| Airport | Leipzig/Halle Airport (EDDP) |
| Time | Latitude | Longitude | Altitude | Speed | Heading |
|---|---|---|---|---|---|
| 2026-05-05 11:17 | 51.28193 | 6.76567 | 125 ft | 0 kts | 96° |
| 2026-05-05 11:35 | 51.28193 | 6.76571 | 129 ft | 0 kts | 96° |
| 2026-05-05 11:35 | 51.28193 | 6.76570 | 129 ft | 2 kts | 96° |
| 2026-05-05 11:36 | 51.28194 | 6.76553 | 124 ft | 2 kts | 97° |
| 2026-05-05 11:36 | 51.28196 | 6.76527 | 127 ft | 2 kts | 97° |
| 2026-05-05 11:36 | 51.28199 | 6.76493 | 125 ft | 2 kts | 98° |
| 2026-05-05 11:36 | 51.28202 | 6.76467 | 126 ft | 2 kts | 99° |
| 2026-05-05 11:37 | 51.28205 | 6.76441 | 125 ft | 2 kts | 101° |
| 2026-05-05 11:37 | 51.28207 | 6.76424 | 125 ft | 2 kts | 102° |
| 2026-05-05 11:37 | 51.28211 | 6.76399 | 127 ft | 2 kts | 101° |
| 2026-05-05 11:37 | 51.28211 | 6.76384 | 126 ft | 0 kts | 63° |
| 2026-05-05 11:38 | 51.28214 | 6.76387 | 126 ft | 0 kts | 51° |
| 2026-05-05 11:39 | 51.28230 | 6.76422 | 129 ft | 11 kts | 52° |
| 2026-05-05 11:39 | 51.28300 | 6.76491 | 128 ft | 12 kts | 351° |
| 2026-05-05 11:39 | 51.28350 | 6.76496 | 126 ft | 5 kts | 36° |
| 2026-05-05 11:40 | 51.28400 | 6.76590 | 124 ft | 18 kts | 52° |
| 2026-05-05 11:40 | 51.28501 | 6.76801 | 134 ft | 29 kts | 52° |
| 2026-05-05 11:40 | 51.28643 | 6.77099 | 136 ft | 38 kts | 52° |
| 2026-05-05 11:40 | 51.28806 | 6.77441 | 133 ft | 39 kts | 52° |
| 2026-05-05 11:41 | 51.28971 | 6.77786 | 135 ft | 39 kts | 52° |
| 2026-05-05 11:41 | 51.29133 | 6.78126 | 137 ft | 37 kts | 53° |
| 2026-05-05 11:41 | 51.29232 | 6.78334 | 136 ft | 24 kts | 52° |
| 2026-05-05 11:41 | 51.29295 | 6.78467 | 137 ft | 10 kts | 53° |
| 2026-05-05 11:42 | 51.29311 | 6.78502 | 137 ft | 0 kts | 51° |
| 2026-05-05 11:43 | 51.29312 | 6.78504 | 137 ft | 0 kts | 51° |
| 2026-05-05 11:44 | 51.29314 | 6.78506 | 137 ft | 1 kts | 51° |
| 2026-05-05 11:44 | 51.29325 | 6.78528 | 137 ft | 4 kts | 51° |
| 2026-05-05 11:44 | 51.29352 | 6.78563 | 136 ft | 7 kts | 28° |
| 2026-05-05 11:44 | 51.29373 | 6.78573 | 136 ft | 0 kts | 5° |
| 2026-05-05 11:45 | 51.29374 | 6.78573 | 136 ft | 1 kts | 5° |
| 2026-05-05 11:45 | 51.29407 | 6.78573 | 136 ft | 11 kts | 360° |
| 2026-05-05 11:45 | 51.29507 | 6.78561 | 138 ft | 1 kts | 346° |
| 2026-05-05 11:46 | 51.29530 | 6.78485 | 137 ft | 8 kts | 255° |
| 2026-05-05 11:46 | 51.29506 | 6.78437 | 136 ft | 0 kts | 232° |
| 2026-05-05 11:46 | 51.29446 | 6.78312 | 136 ft | 48 kts | 233° |
| 2026-05-05 11:46 | 51.29073 | 6.77531 | 133 ft | 129 kts | 232° |
| 2026-05-05 11:47 | 51.28408 | 6.76146 | 391 ft | 173 kts | 238° |
| 2026-05-05 11:47 | 51.27664 | 6.74549 | 1063 ft | 185 kts | 237° |
| 2026-05-05 11:47 | 51.26871 | 6.72859 | 1774 ft | 195 kts | 233° |
| 2026-05-05 11:47 | 51.25912 | 6.71085 | 2247 ft | 230 kts | 230° |
| 2026-05-05 11:48 | 51.23686 | 6.66873 | 3973 ft | 259 kts | 230° |
| 2026-05-05 11:48 | 51.22515 | 6.64649 | 4658 ft | 262 kts | 226° |
| 2026-05-05 11:48 | 51.21011 | 6.63114 | 4941 ft | 259 kts | 189° |
| 2026-05-05 11:49 | 51.19222 | 6.63435 | 5198 ft | 263 kts | 165° |
| 2026-05-05 11:49 | 51.17424 | 6.64151 | 6151 ft | 267 kts | 167° |
| 2026-05-05 11:49 | 51.15634 | 6.64766 | 7356 ft | 265 kts | 169° |
| 2026-05-05 11:49 | 51.13807 | 6.65364 | 8400 ft | 270 kts | 162° |
| 2026-05-05 11:50 | 51.12330 | 6.67150 | 9421 ft | 278 kts | 120° |
| 2026-05-05 11:50 | 51.12044 | 6.70214 | 10293 ft | 293 kts | 81° |
| 2026-05-05 11:50 | 51.12626 | 6.73455 | 10721 ft | 317 kts | 75° |
| 2026-05-05 11:50 | 51.13232 | 6.76970 | 11100 ft | 339 kts | 78° |
| 2026-05-05 11:51 | 51.13711 | 6.80749 | 11576 ft | 354 kts | 82° |
| 2026-05-05 11:51 | 51.14064 | 6.84624 | 12246 ft | 361 kts | 85° |
| 2026-05-05 11:51 | 51.14337 | 6.88634 | 12961 ft | 367 kts | 86° |
| 2026-05-05 11:51 | 51.14557 | 6.92727 | 13668 ft | 373 kts | 87° |
| 2026-05-05 11:52 | 51.14746 | 6.96833 | 14325 ft | 377 kts | 88° |
| 2026-05-05 11:52 | 51.14919 | 7.01024 | 15030 ft | 381 kts | 88° |
| 2026-05-05 11:52 | 51.15082 | 7.05253 | 15773 ft | 383 kts | 88° |
| 2026-05-05 11:52 | 51.15239 | 7.09518 | 16498 ft | 386 kts | 88° |
| 2026-05-05 11:53 | 51.15391 | 7.13801 | 17169 ft | 389 kts | 88° |
| 2026-05-05 11:53 | 51.15540 | 7.18141 | 17770 ft | 395 kts | 88° |
| 2026-05-05 11:53 | 51.15688 | 7.22482 | 18358 ft | 399 kts | 88° |
| 2026-05-05 11:53 | 51.15840 | 7.26921 | 18909 ft | 402 kts | 88° |
| 2026-05-05 11:54 | 51.15990 | 7.31396 | 19421 ft | 406 kts | 89° |
| 2026-05-05 11:54 | 51.16140 | 7.35913 | 19926 ft | 409 kts | 89° |
| 2026-05-05 11:54 | 51.16289 | 7.40445 | 20423 ft | 412 kts | 89° |
| 2026-05-05 11:54 | 51.16388 | 7.45039 | 20908 ft | 414 kts | 92° |
| 2026-05-05 11:55 | 51.16637 | 7.49628 | 21377 ft | 422 kts | 75° |
| 2026-05-05 11:55 | 51.18008 | 7.53781 | 21819 ft | 428 kts | 58° |
| 2026-05-05 11:55 | 51.19491 | 7.57824 | 22276 ft | 429 kts | 66° |
| 2026-05-05 11:55 | 51.19905 | 7.59216 | 22430 ft | 430 kts | 67° |
| 2026-05-05 11:56 | 51.21059 | 7.63475 | 22777 ft | 432 kts | 69° |
| 2026-05-05 11:56 | 51.22190 | 7.67927 | 22860 ft | 432 kts | 70° |
| 2026-05-05 11:56 | 51.23298 | 7.72400 | 22868 ft | 434 kts | 70° |
| 2026-05-05 11:56 | 51.23636 | 7.73775 | 22855 ft | 434 kts | 70° |
| 2026-05-05 11:57 | 51.24716 | 7.78183 | 22859 ft | 434 kts | 70° |
| 2026-05-05 11:57 | 51.25812 | 7.82678 | 22865 ft | 435 kts | 70° |
| 2026-05-05 11:57 | 51.26896 | 7.87139 | 22867 ft | 435 kts | 70° |
| 2026-05-05 11:57 | 51.27989 | 7.91651 | 22865 ft | 435 kts | 71° |
| 2026-05-05 11:58 | 51.28357 | 7.93171 | 22861 ft | 435 kts | 71° |
| 2026-05-05 11:58 | 51.29397 | 7.97479 | 22857 ft | 435 kts | 71° |
| 2026-05-05 11:58 | 51.30481 | 8.01977 | 22868 ft | 435 kts | 70° |
| 2026-05-05 11:58 | 51.31553 | 8.06430 | 22851 ft | 433 kts | 70° |
| 2026-05-05 11:59 | 51.32631 | 8.10921 | 22862 ft | 433 kts | 70° |
| 2026-05-05 11:59 | 51.33706 | 8.15413 | 22837 ft | 433 kts | 71° |
| 2026-05-05 11:59 | 51.34780 | 8.19922 | 22854 ft | 434 kts | 71° |
| 2026-05-05 11:59 | 51.35821 | 8.24473 | 22861 ft | 434 kts | 73° |
| 2026-05-05 12:00 | 51.36911 | 8.29002 | 22854 ft | 436 kts | 63° |
| 2026-05-05 12:00 | 51.38399 | 8.33168 | 22858 ft | 436 kts | 62° |
| 2026-05-05 12:00 | 51.39872 | 8.37422 | 22851 ft | 437 kts | 62° |
| 2026-05-05 12:00 | 51.41329 | 8.41692 | 22861 ft | 437 kts | 62° |
| 2026-05-05 12:01 | 51.42729 | 8.46007 | 22872 ft | 436 kts | 68° |
| 2026-05-05 12:01 | 51.43712 | 8.50557 | 22867 ft | 434 kts | 77° |
| 2026-05-05 12:01 | 51.44273 | 8.55296 | 22870 ft | 432 kts | 85° |
| 2026-05-05 12:01 | 51.44395 | 8.60082 | 22872 ft | 429 kts | 94° |
| 2026-05-05 12:02 | 51.44080 | 8.64845 | 22858 ft | 427 kts | 102° |
| 2026-05-05 12:02 | 51.43503 | 8.69518 | 22849 ft | 427 kts | 104° |
| 2026-05-05 12:02 | 51.42937 | 8.74225 | 22845 ft | 429 kts | 102° |
| 2026-05-05 12:02 | 51.42421 | 8.78889 | 22846 ft | 429 kts | 102° |
| 2026-05-05 12:03 | 51.41890 | 8.83611 | 22849 ft | 430 kts | 102° |
| 2026-05-05 12:03 | 51.41394 | 8.88339 | 22845 ft | 430 kts | 101° |
| 2026-05-05 12:03 | 51.40942 | 8.93087 | 22850 ft | 430 kts | 100° |
| 2026-05-05 12:03 | 51.40528 | 8.97826 | 22844 ft | 430 kts | 100° |
| 2026-05-05 12:04 | 51.40141 | 9.02520 | 22846 ft | 430 kts | 99° |
| 2026-05-05 12:04 | 51.39749 | 9.07272 | 22848 ft | 430 kts | 102° |
| 2026-05-05 12:04 | 51.39352 | 9.12041 | 22835 ft | 432 kts | 93° |
| 2026-05-05 12:04 | 51.39442 | 9.16855 | 22841 ft | 433 kts | 88° |
| 2026-05-05 12:05 | 51.39733 | 9.21701 | 22847 ft | 442 kts | 85° |
| 2026-05-05 12:05 | 51.40083 | 9.26660 | 22845 ft | 454 kts | 85° |
| 2026-05-05 12:05 | 51.40421 | 9.31682 | 22844 ft | 464 kts | 86° |
| 2026-05-05 12:05 | 51.40729 | 9.36903 | 22843 ft | 472 kts | 86° |
| 2026-05-05 12:06 | 51.40995 | 9.42196 | 22858 ft | 479 kts | 88° |
| 2026-05-05 12:06 | 51.41224 | 9.47536 | 22856 ft | 482 kts | 88° |
| 2026-05-05 12:06 | 51.41422 | 9.52924 | 22856 ft | 482 kts | 89° |
| 2026-05-05 12:06 | 51.41589 | 9.58222 | 22854 ft | 482 kts | 89° |
| 2026-05-05 12:07 | 51.41740 | 9.63599 | 22848 ft | 482 kts | 89° |
| 2026-05-05 12:07 | 51.41876 | 9.68974 | 22852 ft | 483 kts | 89° |
| 2026-05-05 12:07 | 51.42007 | 9.74366 | 22854 ft | 484 kts | 89° |
| 2026-05-05 12:07 | 51.42136 | 9.79768 | 22852 ft | 484 kts | 89° |
| 2026-05-05 12:08 | 51.42264 | 9.85159 | 22857 ft | 484 kts | 89° |
| 2026-05-05 12:08 | 51.42389 | 9.90475 | 22858 ft | 484 kts | 90° |
| 2026-05-05 12:08 | 51.42426 | 9.92032 | 22858 ft | 484 kts | 90° |
| 2026-05-05 12:08 | 51.42550 | 9.97417 | 22854 ft | 484 kts | 90° |
| 2026-05-05 12:09 | 51.42672 | 10.02815 | 22861 ft | 484 kts | 90° |
| 2026-05-05 12:09 | 51.42793 | 10.08208 | 22855 ft | 484 kts | 90° |
| 2026-05-05 12:09 | 51.42911 | 10.13589 | 22848 ft | 484 kts | 90° |
| 2026-05-05 12:09 | 51.43024 | 10.19002 | 22856 ft | 485 kts | 90° |
| 2026-05-05 12:10 | 51.43135 | 10.24404 | 22858 ft | 486 kts | 90° |
| 2026-05-05 12:10 | 51.43246 | 10.29817 | 22860 ft | 486 kts | 90° |
| 2026-05-05 12:10 | 51.43353 | 10.35161 | 22860 ft | 486 kts | 90° |
| 2026-05-05 12:10 | 51.43461 | 10.40590 | 22861 ft | 486 kts | 90° |
| 2026-05-05 12:11 | 51.43565 | 10.46000 | 22863 ft | 486 kts | 90° |
| 2026-05-05 12:11 | 51.43661 | 10.51424 | 22861 ft | 486 kts | 91° |
| 2026-05-05 12:11 | 51.43774 | 10.56844 | 22859 ft | 487 kts | 86° |
| 2026-05-05 12:11 | 51.44151 | 10.62267 | 22860 ft | 487 kts | 84° |
| 2026-05-05 12:12 | 51.44571 | 10.67342 | 22867 ft | 489 kts | 83° |
| 2026-05-05 12:12 | 51.45054 | 10.72744 | 22868 ft | 489 kts | 83° |
| 2026-05-05 12:12 | 51.45553 | 10.78145 | 22866 ft | 489 kts | 83° |
| 2026-05-05 12:12 | 51.46059 | 10.83553 | 22867 ft | 489 kts | 83° |
| 2026-05-05 12:13 | 51.46224 | 10.85304 | 22868 ft | 489 kts | 83° |
| 2026-05-05 12:13 | 51.46706 | 10.90434 | 22867 ft | 489 kts | 83° |
| 2026-05-05 12:13 | 51.47214 | 10.95839 | 22868 ft | 489 kts | 83° |
| 2026-05-05 12:13 | 51.47721 | 11.01255 | 22868 ft | 489 kts | 83° |
| 2026-05-05 12:14 | 51.48224 | 11.06652 | 22870 ft | 489 kts | 83° |
| 2026-05-05 12:14 | 51.48726 | 11.12067 | 22857 ft | 489 kts | 83° |
| 2026-05-05 12:14 | 51.49057 | 11.15653 | 22849 ft | 489 kts | 83° |
| 2026-05-05 12:14 | 51.49360 | 11.18960 | 22683 ft | 488 kts | 83° |
| 2026-05-05 12:15 | 51.49852 | 11.24337 | 22187 ft | 487 kts | 83° |
| 2026-05-05 12:15 | 51.50345 | 11.29713 | 21673 ft | 486 kts | 83° |
| 2026-05-05 12:15 | 51.50837 | 11.35077 | 21161 ft | 483 kts | 83° |
| 2026-05-05 12:15 | 51.50977 | 11.36613 | 21012 ft | 483 kts | 83° |
| 2026-05-05 12:16 | 51.51461 | 11.41930 | 20499 ft | 480 kts | 83° |
| 2026-05-05 12:16 | 51.51923 | 11.47078 | 20008 ft | 460 kts | 83° |
| 2026-05-05 12:16 | 51.52293 | 11.52039 | 19517 ft | 436 kts | 86° |
| 2026-05-05 12:16 | 51.52512 | 11.56805 | 19033 ft | 421 kts | 88° |
| 2026-05-05 12:17 | 51.52695 | 11.61438 | 18567 ft | 417 kts | 88° |
| 2026-05-05 12:17 | 51.52887 | 11.66067 | 18083 ft | 416 kts | 88° |
| 2026-05-05 12:17 | 51.53097 | 11.70703 | 17552 ft | 414 kts | 87° |
| 2026-05-05 12:17 | 51.53319 | 11.75325 | 17013 ft | 411 kts | 87° |
| 2026-05-05 12:18 | 51.53544 | 11.79879 | 16491 ft | 407 kts | 87° |
| 2026-05-05 12:18 | 51.53765 | 11.84325 | 15994 ft | 403 kts | 87° |
| 2026-05-05 12:18 | 51.53987 | 11.88811 | 15490 ft | 398 kts | 87° |
| 2026-05-05 12:18 | 51.54204 | 11.93216 | 15001 ft | 394 kts | 87° |
| 2026-05-05 12:19 | 51.54417 | 11.97570 | 14517 ft | 390 kts | 87° |
| 2026-05-05 12:19 | 51.54627 | 12.01898 | 14037 ft | 386 kts | 87° |
| 2026-05-05 12:19 | 51.54833 | 12.06189 | 13551 ft | 382 kts | 87° |
| 2026-05-05 12:19 | 51.55027 | 12.10306 | 13030 ft | 366 kts | 87° |
| 2026-05-05 12:20 | 51.55199 | 12.14319 | 12487 ft | 351 kts | 88° |
| 2026-05-05 12:20 | 51.55348 | 12.18169 | 11969 ft | 338 kts | 88° |
| 2026-05-05 12:20 | 51.55483 | 12.21839 | 11392 ft | 320 kts | 88° |
| 2026-05-05 12:20 | 51.55603 | 12.25331 | 10763 ft | 306 kts | 89° |
| 2026-05-05 12:21 | 51.55715 | 12.28649 | 10169 ft | 298 kts | 89° |
| 2026-05-05 12:21 | 51.55834 | 12.31995 | 9551 ft | 297 kts | 88° |
| 2026-05-05 12:21 | 51.55963 | 12.35261 | 8903 ft | 295 kts | 88° |
| 2026-05-05 12:21 | 51.56103 | 12.38521 | 8266 ft | 294 kts | 87° |
| 2026-05-05 12:22 | 51.56249 | 12.41782 | 7640 ft | 291 kts | 86° |
| 2026-05-05 12:22 | 51.56343 | 12.43934 | 7229 ft | 290 kts | 88° |
| 2026-05-05 12:22 | 51.56130 | 12.47115 | 6617 ft | 286 kts | 108° |
| 2026-05-05 12:22 | 51.55364 | 12.50053 | 5994 ft | 283 kts | 111° |
| 2026-05-05 12:23 | 51.54800 | 12.53061 | 5356 ft | 280 kts | 110° |
| 2026-05-05 12:23 | 51.53849 | 12.55742 | 4725 ft | 274 kts | 132° |
| 2026-05-05 12:23 | 51.52398 | 12.57582 | 4079 ft | 260 kts | 155° |
| 2026-05-05 12:23 | 51.50715 | 12.58314 | 3458 ft | 251 kts | 174° |
| 2026-05-05 12:24 | 51.49015 | 12.58351 | 2978 ft | 237 kts | 187° |
| 2026-05-05 12:24 | 51.47460 | 12.57754 | 2683 ft | 223 kts | 199° |
| 2026-05-05 12:24 | 51.46147 | 12.56575 | 2758 ft | 215 kts | 216° |
| 2026-05-05 12:24 | 51.45137 | 12.54851 | 2950 ft | 212 kts | 238° |
| 2026-05-05 12:25 | 51.44574 | 12.52685 | 2990 ft | 211 kts | 258° |
| 2026-05-05 12:25 | 51.44400 | 12.50353 | 2985 ft | 210 kts | 266° |
| 2026-05-05 12:25 | 51.44263 | 12.48108 | 2982 ft | 200 kts | 265° |
| 2026-05-05 12:25 | 51.44127 | 12.45902 | 2984 ft | 198 kts | 266° |
| 2026-05-05 12:26 | 51.44035 | 12.43709 | 2994 ft | 196 kts | 269° |
| 2026-05-05 12:26 | 51.44013 | 12.41539 | 2751 ft | 189 kts | 270° |
| 2026-05-05 12:26 | 51.43953 | 12.39529 | 2428 ft | 176 kts | 266° |
| 2026-05-05 12:26 | 51.43823 | 12.37604 | 2019 ft | 169 kts | 266° |
| 2026-05-05 12:27 | 51.43753 | 12.35818 | 1749 ft | 152 kts | 268° |
| 2026-05-05 12:27 | 51.43714 | 12.34107 | 1361 ft | 154 kts | 269° |
| 2026-05-05 12:27 | 51.43631 | 12.32471 | 1175 ft | 144 kts | 264° |
| 2026-05-05 12:27 | 51.43531 | 12.30917 | 993 ft | 135 kts | 269° |
| 2026-05-05 12:28 | 51.43493 | 12.29468 | 809 ft | 131 kts | 270° |
| 2026-05-05 12:28 | 51.43423 | 12.28027 | 647 ft | 130 kts | 269° |
| 2026-05-05 12:28 | 51.43356 | 12.26561 | 484 ft | 135 kts | 268° |
| 2026-05-05 12:28 | 51.43292 | 12.25178 | 460 ft | 91 kts | 266° |
| 2026-05-05 12:29 | 51.43255 | 12.24254 | 448 ft | 61 kts | 263° |
| 2026-05-05 12:29 | 51.43146 | 12.23674 | 453 ft | 40 kts | 235° |
| 2026-05-05 12:29 | 51.43088 | 12.23541 | 451 ft | 0 kts | 235° |
| 2026-05-05 12:30 | 51.43087 | 12.23537 | 451 ft | 1 kts | 235° |
| 2026-05-05 12:31 | 51.43070 | 12.23499 | 451 ft | 12 kts | 232° |
| 2026-05-05 12:31 | 51.42979 | 12.23434 | 446 ft | 14 kts | 169° |
| 2026-05-05 12:31 | 51.42897 | 12.23367 | 438 ft | 12 kts | 257° |
| 2026-05-05 12:31 | 51.42892 | 12.23238 | 442 ft | 12 kts | 266° |
| 2026-05-05 12:32 | 51.42885 | 12.23092 | 435 ft | 15 kts | 265° |
| 2026-05-05 12:32 | 51.42877 | 12.22914 | 431 ft | 17 kts | 265° |
| 2026-05-05 12:32 | 51.42867 | 12.22706 | 443 ft | 21 kts | 266° |
| 2026-05-05 12:32 | 51.42853 | 12.22441 | 440 ft | 27 kts | 264° |
| 2026-05-05 12:33 | 51.42840 | 12.22124 | 439 ft | 31 kts | 264° |
| 2026-05-05 12:33 | 51.42825 | 12.21760 | 427 ft | 35 kts | 265° |
| 2026-05-05 12:33 | 51.42804 | 12.21370 | 424 ft | 25 kts | 266° |
| 2026-05-05 12:33 | 51.42734 | 12.21218 | 428 ft | 16 kts | 194° |
| 2026-05-05 12:34 | 51.42606 | 12.21164 | 439 ft | 31 kts | 195° |
| 2026-05-05 12:34 | 51.42386 | 12.21067 | 438 ft | 33 kts | 197° |
| 2026-05-05 12:34 | 51.42259 | 12.21012 | 434 ft | 12 kts | 194° |
| 2026-05-05 12:34 | 51.42158 | 12.20970 | 424 ft | 20 kts | 194° |
| 2026-05-05 12:35 | 51.42021 | 12.20925 | 424 ft | 12 kts | 162° |
| 2026-05-05 12:35 | 51.41976 | 12.21033 | 425 ft | 12 kts | 106° |
| 2026-05-05 12:35 | 51.41949 | 12.21187 | 423 ft | 29 kts | 105° |
| 2026-05-05 12:35 | 51.41910 | 12.21417 | 433 ft | 0 kts | 98° |
| 2026-05-05 12:36 | 51.41919 | 12.21447 | 435 ft | 2 kts | 28° |
| 2026-05-05 12:36 | 51.41932 | 12.21451 | 427 ft | 2 kts | 13° |
| 2026-05-05 12:36 | 51.41953 | 12.21461 | 429 ft | 5 kts | 17° |
| 2026-05-05 12:36 | 51.41967 | 12.21466 | 428 ft | 3 kts | 14° |
| 2026-05-05 12:37 | 51.41979 | 12.21471 | 427 ft | 0 kts | 15° |